sensor_id;sensor_type;location;lat;lon;timestamp;pressure;altitude;pressure_sealevel;temperature;humidity
53340;BME280;46212;50.258;19.062;2023-01-25T00:01:58;100422.63;;;2.50;90.61
53340;BME280;46212;50.258;19.062;2023-01-25T00:04:23;100426.88;;;2.32;90.50
53340;BME280;46212;50.258;19.062;2023-01-25T00:06:49;100410.16;;;2.14;91.30
53340;BME280;46212;50.258;19.062;2023-01-25T00:09:15;100425.47;;;2.03;92.30
53340;BME280;46212;50.258;19.062;2023-01-25T00:11:41;100422.75;;;2.38;91.86
53340;BME280;46212;50.258;19.062;2023-01-25T00:14:11;100431.84;;;2.26;91.88
53340;BME280;46212;50.258;19.062;2023-01-25T00:16:38;100433.66;;;2.57;91.15
53340;BME280;46212;50.258;19.062;2023-01-25T00:19:06;100429.69;;;2.35;90.93
53340;BME280;46212;50.258;19.062;2023-01-25T00:21:32;100422.00;;;2.22;92.58
53340;BME280;46212;50.258;19.062;2023-01-25T00:23:58;100418.91;;;2.23;92.33
53340;BME280;46212;50.258;19.062;2023-01-25T00:26:24;100405.06;;;1.97;92.63
53340;BME280;46212;50.258;19.062;2023-01-25T00:28:51;100416.53;;;1.87;93.36
53340;BME280;46212;50.258;19.062;2023-01-25T00:31:26;100413.81;;;1.87;93.84
53340;BME280;46212;50.258;19.062;2023-01-25T00:34:46;100421.50;;;2.00;93.63
53340;BME280;46212;50.258;19.062;2023-01-25T00:36:49;100429.72;;;2.54;91.87
53340;BME280;46212;50.258;19.062;2023-01-25T00:39:15;100431.53;;;2.66;90.45
53340;BME280;46212;50.258;19.062;2023-01-25T00:41:41;100433.97;;;2.52;90.35
53340;BME280;46212;50.258;19.062;2023-01-25T00:44:07;100424.97;;;2.32;91.40
53340;BME280;46212;50.258;19.062;2023-01-25T00:46:32;100414.22;;;2.39;91.47
53340;BME280;46212;50.258;19.062;2023-01-25T00:48:58;100429.09;;;2.26;91.44
53340;BME280;46212;50.258;19.062;2023-01-25T00:51:24;100417.94;;;1.96;93.06
53340;BME280;46212;50.258;19.062;2023-01-25T00:53:50;100410.03;;;1.76;93.53
53340;BME280;46212;50.258;19.062;2023-01-25T00:56:16;100416.16;;;1.88;93.38
53340;BME280;46212;50.258;19.062;2023-01-25T00:58:42;100409.31;;;1.79;93.89
53340;BME280;46212;50.258;19.062;2023-01-25T01:01:07;100419.03;;;2.11;93.23
53340;BME280;46212;50.258;19.062;2023-01-25T01:03:33;100407.16;;;2.38;92.12
53340;BME280;46212;50.258;19.062;2023-01-25T01:06:04;100417.69;;;2.21;91.47
53340;BME280;46212;50.258;19.062;2023-01-25T01:08:34;100411.63;;;2.27;91.86
53340;BME280;46212;50.258;19.062;2023-01-25T01:11:01;100398.09;;;1.80;93.09
53340;BME280;46212;50.258;19.062;2023-01-25T01:13:28;100378.25;;;1.64;93.75
53340;BME280;46212;50.258;19.062;2023-01-25T01:15:55;100391.16;;;1.67;94.82
53340;BME280;46212;50.258;19.062;2023-01-25T01:18:21;100380.25;;;1.67;94.91
53340;BME280;46212;50.258;19.062;2023-01-25T01:20:50;100377.25;;;1.88;95.04
53340;BME280;46212;50.258;19.062;2023-01-25T01:23:17;100370.06;;;1.80;94.50
53340;BME280;46212;50.258;19.062;2023-01-25T01:25:43;100376.38;;;1.84;94.49
53340;BME280;46212;50.258;19.062;2023-01-25T01:28:10;100376.47;;;1.72;94.35
53340;BME280;46212;50.258;19.062;2023-01-25T01:30:36;100377.16;;;2.19;93.45
53340;BME280;46212;50.258;19.062;2023-01-25T01:33:01;100377.09;;;2.16;92.75
53340;BME280;46212;50.258;19.062;2023-01-25T01:35:31;100357.38;;;2.03;92.55
53340;BME280;46212;50.258;19.062;2023-01-25T01:37:57;100368.38;;;1.75;93.44
53340;BME280;46212;50.258;19.062;2023-01-25T01:40:22;100365.97;;;1.54;94.56
53340;BME280;46212;50.258;19.062;2023-01-25T01:46:04;100365.53;;;2.03;93.30
53340;BME280;46212;50.258;19.062;2023-01-25T01:49:01;100355.53;;;1.91;93.70
53340;BME280;46212;50.258;19.062;2023-01-25T01:56:35;100330.88;;;2.03;93.15
53340;BME280;46212;50.258;19.062;2023-01-25T01:59:04;100341.00;;;2.03;92.28
53340;BME280;46212;50.258;19.062;2023-01-25T02:01:30;100343.31;;;1.85;93.17
53340;BME280;46212;50.258;19.062;2023-01-25T02:03:56;100333.31;;;1.89;93.22
53340;BME280;46212;50.258;19.062;2023-01-25T02:08:46;100309.94;;;1.88;93.39
53340;BME280;46212;50.258;19.062;2023-01-25T02:11:13;100328.41;;;1.79;93.36
53340;BME280;46212;50.258;19.062;2023-01-25T02:13:38;100323.25;;;1.74;93.65
53340;BME280;46212;50.258;19.062;2023-01-25T02:16:04;100320.91;;;1.92;93.03
53340;BME280;46212;50.258;19.062;2023-01-25T02:18:30;100329.72;;;1.85;92.74
53340;BME280;46212;50.258;19.062;2023-01-25T02:20:58;100320.56;;;1.78;93.18
53340;BME280;46212;50.258;19.062;2023-01-25T02:24:08;100318.91;;;1.89;93.16
53340;BME280;46212;50.258;19.062;2023-01-25T02:26:25;100312.09;;;1.98;92.80
53340;BME280;46212;50.258;19.062;2023-01-25T02:29:04;100323.28;;;1.93;93.02
53340;BME280;46212;50.258;19.062;2023-01-25T02:31:30;100306.94;;;1.93;92.32
53340;BME280;46212;50.258;19.062;2023-01-25T02:33:55;100311.94;;;1.91;92.50
53340;BME280;46212;50.258;19.062;2023-01-25T02:36:32;100308.53;;;1.79;92.94
53340;BME280;46212;50.258;19.062;2023-01-25T02:39:04;100314.38;;;1.77;92.77
53340;BME280;46212;50.258;19.062;2023-01-25T02:41:39;100317.00;;;1.74;93.53
53340;BME280;46212;50.258;19.062;2023-01-25T02:44:14;100317.72;;;1.71;93.38
53340;BME280;46212;50.258;19.062;2023-01-25T02:46:41;100321.91;;;1.84;93.40
53340;BME280;46212;50.258;19.062;2023-01-25T02:49:08;100313.50;;;1.73;93.04
53340;BME280;46212;50.258;19.062;2023-01-25T02:51:40;100325.84;;;1.86;92.98
53340;BME280;46212;50.258;19.062;2023-01-25T02:54:07;100326.56;;;1.83;92.96
53340;BME280;46212;50.258;19.062;2023-01-25T02:56:34;100315.38;;;1.88;92.95
53340;BME280;46212;50.258;19.062;2023-01-25T02:58:59;100308.25;;;1.65;93.02
53340;BME280;46212;50.258;19.062;2023-01-25T03:01:36;100306.81;;;1.71;93.49
53340;BME280;46212;50.258;19.062;2023-01-25T03:04:02;100322.00;;;1.72;93.72
53340;BME280;46212;50.258;19.062;2023-01-25T03:06:28;100318.72;;;1.82;93.63
53340;BME280;46212;50.258;19.062;2023-01-25T03:08:53;100321.06;;;1.99;93.03
53340;BME280;46212;50.258;19.062;2023-01-25T03:11:19;100318.53;;;1.90;92.71
53340;BME280;46212;50.258;19.062;2023-01-25T03:13:44;100315.53;;;1.95;92.73
53340;BME280;46212;50.258;19.062;2023-01-25T03:16:12;100314.03;;;1.98;92.54
53340;BME280;46212;50.258;19.062;2023-01-25T03:18:38;100312.84;;;1.80;92.94
53340;BME280;46212;50.258;19.062;2023-01-25T03:23:34;100304.41;;;1.85;93.01
53340;BME280;46212;50.258;19.062;2023-01-25T03:26:16;100296.03;;;1.93;92.21
53340;BME280;46212;50.258;19.062;2023-01-25T03:28:42;100299.94;;;1.77;92.46
53340;BME280;46212;50.258;19.062;2023-01-25T03:31:09;100302.38;;;1.82;92.92
53340;BME280;46212;50.258;19.062;2023-01-25T03:33:35;100307.69;;;1.94;92.45
53340;BME280;46212;50.258;19.062;2023-01-25T03:36:01;100295.63;;;1.76;92.36
53340;BME280;46212;50.258;19.062;2023-01-25T03:38:27;100303.22;;;2.01;92.08
53340;BME280;46212;50.258;19.062;2023-01-25T03:40:52;100306.00;;;2.05;91.55
53340;BME280;46212;50.258;19.062;2023-01-25T03:43:18;100301.84;;;1.92;92.02
53340;BME280;46212;50.258;19.062;2023-01-25T03:45:43;100304.25;;;1.97;92.20
53340;BME280;46212;50.258;19.062;2023-01-25T03:48:09;100294.00;;;1.90;92.33
53340;BME280;46212;50.258;19.062;2023-01-25T03:50:34;100288.53;;;2.06;92.39
53340;BME280;46212;50.258;19.062;2023-01-25T03:52:59;100299.84;;;2.08;91.83
53340;BME280;46212;50.258;19.062;2023-01-25T03:55:34;100301.84;;;2.11;91.63
53340;BME280;46212;50.258;19.062;2023-01-25T03:57:59;100293.75;;;2.14;91.29
53340;BME280;46212;50.258;19.062;2023-01-25T04:00:25;100300.50;;;2.40;90.48
53340;BME280;46212;50.258;19.062;2023-01-25T04:02:50;100292.09;;;2.48;89.66
53340;BME280;46212;50.258;19.062;2023-01-25T04:05:16;100278.09;;;2.50;89.27
53340;BME280;46212;50.258;19.062;2023-01-25T04:07:41;100278.59;;;2.36;89.05
53340;BME280;46212;50.258;19.062;2023-01-25T04:10:07;100287.00;;;2.47;89.61
53340;BME280;46212;50.258;19.062;2023-01-25T04:12:33;100277.59;;;2.44;89.80
53340;BME280;46212;50.258;19.062;2023-01-25T04:14:58;100286.06;;;2.39;89.53
53340;BME280;46212;50.258;19.062;2023-01-25T04:17:24;100283.06;;;2.25;89.74
53340;BME280;46212;50.258;19.062;2023-01-25T04:19:49;100272.94;;;2.06;91.30
53340;BME280;46212;50.258;19.062;2023-01-25T04:22:14;100257.69;;;2.02;91.84
53340;BME280;46212;50.258;19.062;2023-01-25T04:24:41;100267.41;;;2.22;91.48
53340;BME280;46212;50.258;19.062;2023-01-25T04:27:07;100261.69;;;2.08;91.24
53340;BME280;46212;50.258;19.062;2023-01-25T04:29:33;100271.44;;;1.90;92.24
53340;BME280;46212;50.258;19.062;2023-01-25T04:31:59;100263.91;;;1.83;92.85
53340;BME280;46212;50.258;19.062;2023-01-25T04:34:25;100251.28;;;1.75;92.83
53340;BME280;46212;50.258;19.062;2023-01-25T04:36:50;100260.31;;;1.79;93.07
53340;BME280;46212;50.258;19.062;2023-01-25T04:39:15;100259.47;;;1.94;92.99
53340;BME280;46212;50.258;19.062;2023-01-25T04:41:41;100251.22;;;1.91;93.10
53340;BME280;46212;50.258;19.062;2023-01-25T04:44:06;100259.28;;;2.03;92.71
53340;BME280;46212;50.258;19.062;2023-01-25T04:46:32;100256.25;;;2.08;92.41
53340;BME280;46212;50.258;19.062;2023-01-25T04:48:57;100243.75;;;1.88;92.75
53340;BME280;46212;50.258;19.062;2023-01-25T04:51:23;100246.22;;;1.93;92.97
53340;BME280;46212;50.258;19.062;2023-01-25T04:53:48;100241.81;;;1.88;92.19
53340;BME280;46212;50.258;19.062;2023-01-25T04:56:13;100235.00;;;1.79;92.63
53340;BME280;46212;50.258;19.062;2023-01-25T04:58:39;100249.06;;;2.00;92.46
53340;BME280;46212;50.258;19.062;2023-01-25T05:01:04;100250.41;;;2.09;92.04
53340;BME280;46212;50.258;19.062;2023-01-25T05:03:30;100236.75;;;2.06;91.67
53340;BME280;46212;50.258;19.062;2023-01-25T05:05:55;100234.88;;;2.10;91.37
53340;BME280;46212;50.258;19.062;2023-01-25T05:08:20;100245.97;;;2.21;91.36
53340;BME280;46212;50.258;19.062;2023-01-25T05:10:46;100235.44;;;2.19;91.17
53340;BME280;46212;50.258;19.062;2023-01-25T05:13:11;100237.66;;;2.13;91.15
53340;BME280;46212;50.258;19.062;2023-01-25T05:15:37;100233.38;;;1.93;91.71
53340;BME280;46212;50.258;19.062;2023-01-25T05:18:02;100224.03;;;1.75;92.60
53340;BME280;46212;50.258;19.062;2023-01-25T05:20:28;100226.25;;;1.70;93.17
53340;BME280;46212;50.258;19.062;2023-01-25T05:22:53;100231.34;;;1.90;93.21
53340;BME280;46212;50.258;19.062;2023-01-25T05:25:19;100227.25;;;2.00;92.64
53340;BME280;46212;50.258;19.062;2023-01-25T05:28:04;100221.88;;;2.03;92.21
53340;BME280;46212;50.258;19.062;2023-01-25T05:30:31;100232.22;;;2.13;91.67
53340;BME280;46212;50.258;19.062;2023-01-25T05:32:57;100210.34;;;1.91;91.57
53340;BME280;46212;50.258;19.062;2023-01-25T05:35:22;100216.97;;;2.09;91.36
53340;BME280;46212;50.258;19.062;2023-01-25T05:37:47;100226.75;;;2.13;91.77
53340;BME280;46212;50.258;19.062;2023-01-25T05:40:13;100228.13;;;2.23;91.74
53340;BME280;46212;50.258;19.062;2023-01-25T05:42:38;100228.19;;;2.27;90.95
53340;BME280;46212;50.258;19.062;2023-01-25T05:45:05;100231.31;;;2.29;90.45
53340;BME280;46212;50.258;19.062;2023-01-25T05:47:30;100227.41;;;2.26;90.43
53340;BME280;46212;50.258;19.062;2023-01-25T05:49:56;100204.78;;;1.84;91.22
53340;BME280;46212;50.258;19.062;2023-01-25T05:52:21;100204.06;;;1.68;92.33
53340;BME280;46212;50.258;19.062;2023-01-25T05:54:47;100223.47;;;1.85;92.39
53340;BME280;46212;50.258;19.062;2023-01-25T05:57:13;100217.81;;;1.94;92.21
53340;BME280;46212;50.258;19.062;2023-01-25T05:59:39;100217.06;;;2.16;91.61
53340;BME280;46212;50.258;19.062;2023-01-25T06:02:04;100222.75;;;2.07;91.03
53340;BME280;46212;50.258;19.062;2023-01-25T06:04:30;100213.13;;;1.75;92.09
53340;BME280;46212;50.258;19.062;2023-01-25T06:06:55;100215.03;;;1.71;92.86
53340;BME280;46212;50.258;19.062;2023-01-25T06:09:20;100222.91;;;1.76;93.13
53340;BME280;46212;50.258;19.062;2023-01-25T06:11:47;100201.53;;;1.78;92.77
53340;BME280;46212;50.258;19.062;2023-01-25T06:14:12;100216.44;;;1.84;92.48
53340;BME280;46212;50.258;19.062;2023-01-25T06:16:38;100225.56;;;1.92;92.38
53340;BME280;46212;50.258;19.062;2023-01-25T06:19:05;100211.78;;;1.85;92.39
53340;BME280;46212;50.258;19.062;2023-01-25T06:21:31;100213.28;;;1.82;92.70
53340;BME280;46212;50.258;19.062;2023-01-25T06:23:57;100212.41;;;1.78;93.17
53340;BME280;46212;50.258;19.062;2023-01-25T06:26:22;100218.66;;;1.98;92.99
53340;BME280;46212;50.258;19.062;2023-01-25T06:28:48;100216.50;;;2.07;92.42
53340;BME280;46212;50.258;19.062;2023-01-25T06:31:16;100226.13;;;2.20;92.26
53340;BME280;46212;50.258;19.062;2023-01-25T06:33:42;100221.75;;;2.16;92.02
53340;BME280;46212;50.258;19.062;2023-01-25T06:36:12;100208.06;;;1.74;92.99
53340;BME280;46212;50.258;19.062;2023-01-25T06:38:38;100215.03;;;1.71;93.80
53340;BME280;46212;50.258;19.062;2023-01-25T06:41:06;100214.09;;;1.83;94.00
53340;BME280;46212;50.258;19.062;2023-01-25T06:43:33;100211.44;;;1.86;93.88
53340;BME280;46212;50.258;19.062;2023-01-25T06:46:00;100213.53;;;1.93;93.50
53340;BME280;46212;50.258;19.062;2023-01-25T06:48:26;100217.72;;;1.90;93.44
53340;BME280;46212;50.258;19.062;2023-01-25T06:50:53;100216.00;;;1.82;93.91
53340;BME280;46212;50.258;19.062;2023-01-25T06:53:18;100209.34;;;1.80;93.92
53340;BME280;46212;50.258;19.062;2023-01-25T06:55:44;100215.59;;;1.80;94.10
53340;BME280;46212;50.258;19.062;2023-01-25T06:58:09;100205.03;;;1.98;93.99
53340;BME280;46212;50.258;19.062;2023-01-25T07:00:35;100203.41;;;1.93;93.46
53340;BME280;46212;50.258;19.062;2023-01-25T07:03:00;100201.66;;;2.04;93.43
53340;BME280;46212;50.258;19.062;2023-01-25T07:05:25;100196.88;;;1.98;93.02
53340;BME280;46212;50.258;19.062;2023-01-25T07:07:51;100194.94;;;1.98;93.50
53340;BME280;46212;50.258;19.062;2023-01-25T07:10:16;100198.47;;;1.99;93.46
53340;BME280;46212;50.258;19.062;2023-01-25T07:12:41;100191.97;;;2.07;93.15
53340;BME280;46212;50.258;19.062;2023-01-25T07:15:07;100170.41;;;1.98;93.09
53340;BME280;46212;50.258;19.062;2023-01-25T07:17:33;100179.94;;;2.08;92.70
53340;BME280;46212;50.258;19.062;2023-01-25T07:19:58;100175.31;;;2.31;92.35
53340;BME280;46212;50.258;19.062;2023-01-25T07:22:23;100161.91;;;2.23;91.42
53340;BME280;46212;50.258;19.062;2023-01-25T07:24:49;100187.19;;;2.00;91.87
53340;BME280;46212;50.258;19.062;2023-01-25T07:27:16;100166.09;;;1.97;92.43
53340;BME280;46212;50.258;19.062;2023-01-25T07:29:42;100170.84;;;2.00;92.70
53340;BME280;46212;50.258;19.062;2023-01-25T07:32:07;100191.00;;;1.96;93.22
53340;BME280;46212;50.258;19.062;2023-01-25T07:34:33;100179.38;;;1.99;92.79
53340;BME280;46212;50.258;19.062;2023-01-25T07:36:59;100169.84;;;2.08;92.68
53340;BME280;46212;50.258;19.062;2023-01-25T07:39:24;100171.22;;;1.99;92.64
53340;BME280;46212;50.258;19.062;2023-01-25T07:41:49;100181.28;;;2.18;92.89
53340;BME280;46212;50.258;19.062;2023-01-25T07:44:15;100177.06;;;2.20;92.49
53340;BME280;46212;50.258;19.062;2023-01-25T07:46:40;100182.63;;;2.27;92.35
53340;BME280;46212;50.258;19.062;2023-01-25T07:49:06;100192.22;;;1.98;91.99
53340;BME280;46212;50.258;19.062;2023-01-25T07:51:31;100177.00;;;1.97;92.92
53340;BME280;46212;50.258;19.062;2023-01-25T07:54:02;100168.63;;;2.06;92.80
53340;BME280;46212;50.258;19.062;2023-01-25T07:56:30;100167.84;;;2.05;92.38
53340;BME280;46212;50.258;19.062;2023-01-25T07:58:58;100182.38;;;2.13;92.41
53340;BME280;46212;50.258;19.062;2023-01-25T08:01:25;100165.00;;;2.21;92.28
53340;BME280;46212;50.258;19.062;2023-01-25T08:03:52;100173.31;;;2.28;91.91
53340;BME280;46212;50.258;19.062;2023-01-25T08:06:21;100175.66;;;2.30;92.01
53340;BME280;46212;50.258;19.062;2023-01-25T08:08:52;100153.44;;;2.28;92.14
53340;BME280;46212;50.258;19.062;2023-01-25T08:11:20;100158.31;;;1.96;92.92
53340;BME280;46212;50.258;19.062;2023-01-25T08:13:46;100157.72;;;2.06;93.09
53340;BME280;46212;50.258;19.062;2023-01-25T08:16:15;100147.19;;;2.27;92.38
53340;BME280;46212;50.258;19.062;2023-01-25T08:18:42;100141.56;;;2.17;92.28
53340;BME280;46212;50.258;19.062;2023-01-25T08:21:08;100148.09;;;2.12;92.85
53340;BME280;46212;50.258;19.062;2023-01-25T08:23:34;100134.22;;;1.98;92.88
53340;BME280;46212;50.258;19.062;2023-01-25T08:26:04;100147.94;;;2.24;92.59
53340;BME280;46212;50.258;19.062;2023-01-25T08:28:29;100129.25;;;2.26;91.78
53340;BME280;46212;50.258;19.062;2023-01-25T08:31:07;100151.69;;;2.39;91.68
53340;BME280;46212;50.258;19.062;2023-01-25T08:33:33;100134.44;;;2.31;91.66
53340;BME280;46212;50.258;19.062;2023-01-25T08:35:59;100147.03;;;2.39;91.66
53340;BME280;46212;50.258;19.062;2023-01-25T08:38:24;100128.00;;;2.20;92.03
53340;BME280;46212;50.258;19.062;2023-01-25T08:40:50;100141.50;;;2.13;92.84
53340;BME280;46212;50.258;19.062;2023-01-25T08:43:15;100135.38;;;2.20;92.92
53340;BME280;46212;50.258;19.062;2023-01-25T08:45:41;100132.31;;;2.44;91.83
53340;BME280;46212;50.258;19.062;2023-01-25T08:48:06;100138.72;;;2.55;91.14
53340;BME280;46212;50.258;19.062;2023-01-25T08:50:32;100134.19;;;2.40;91.68
53340;BME280;46212;50.258;19.062;2023-01-25T08:52:57;100130.34;;;2.44;91.37
53340;BME280;46212;50.258;19.062;2023-01-25T08:55:22;100119.34;;;2.37;91.46
53340;BME280;46212;50.258;19.062;2023-01-25T08:57:48;100132.13;;;2.56;91.45
53340;BME280;46212;50.258;19.062;2023-01-25T09:00:14;100117.63;;;2.52;90.70
53340;BME280;46212;50.258;19.062;2023-01-25T09:02:39;100128.28;;;2.60;90.74
53340;BME280;46212;50.258;19.062;2023-01-25T09:05:05;100134.41;;;2.54;90.76
53340;BME280;46212;50.258;19.062;2023-01-25T09:07:30;100129.66;;;2.47;91.22
53340;BME280;46212;50.258;19.062;2023-01-25T09:09:57;100134.00;;;2.52;91.47
53340;BME280;46212;50.258;19.062;2023-01-25T09:12:22;100135.09;;;2.47;91.97
53340;BME280;46212;50.258;19.062;2023-01-25T09:14:48;100127.94;;;2.62;91.30
53340;BME280;46212;50.258;19.062;2023-01-25T09:17:13;100115.94;;;2.44;91.12
53340;BME280;46212;50.258;19.062;2023-01-25T09:19:39;100114.91;;;2.52;90.94
53340;BME280;46212;50.258;19.062;2023-01-25T09:22:06;100118.84;;;2.54;91.17
53340;BME280;46212;50.258;19.062;2023-01-25T09:24:32;100110.03;;;2.64;91.15
53340;BME280;46212;50.258;19.062;2023-01-25T09:26:58;100110.66;;;2.54;90.83
53340;BME280;46212;50.258;19.062;2023-01-25T09:29:24;100108.91;;;2.65;90.02
53340;BME280;46212;50.258;19.062;2023-01-25T09:31:49;100113.44;;;2.58;90.59
53340;BME280;46212;50.258;19.062;2023-01-25T09:34:15;100094.13;;;2.44;90.81
53340;BME280;46212;50.258;19.062;2023-01-25T09:36:40;100102.91;;;2.56;90.63
53340;BME280;46212;50.258;19.062;2023-01-25T09:39:06;100093.41;;;2.47;90.73
53340;BME280;46212;50.258;19.062;2023-01-25T09:53:18;100073.56;;;2.73;90.02
53340;BME280;46212;50.258;19.062;2023-01-25T09:55:41;100067.75;;;2.78;89.51
53340;BME280;46212;50.258;19.062;2023-01-25T09:58:18;100055.94;;;2.70;89.20
53340;BME280;46212;50.258;19.062;2023-01-25T10:00:44;100052.91;;;2.49;89.85
53340;BME280;46212;50.258;19.062;2023-01-25T10:03:22;100060.59;;;2.66;90.04
53340;BME280;46212;50.258;19.062;2023-01-25T10:05:53;100058.09;;;2.57;89.34
53340;BME280;46212;50.258;19.062;2023-01-25T10:08:45;100056.69;;;2.41;90.63
53340;BME280;46212;50.258;19.062;2023-01-25T10:11:30;100032.75;;;2.53;90.32
53340;BME280;46212;50.258;19.062;2023-01-25T10:13:57;100045.38;;;2.65;89.76
53340;BME280;46212;50.258;19.062;2023-01-25T10:16:51;100048.38;;;2.56;90.07
53340;BME280;46212;50.258;19.062;2023-01-25T10:21:56;100031.97;;;2.83;88.79
53340;BME280;46212;50.258;19.062;2023-01-25T10:29:43;100037.69;;;3.00;87.37
53340;BME280;46212;50.258;19.062;2023-01-25T10:32:37;100032.69;;;3.06;86.07
53340;BME280;46212;50.258;19.062;2023-01-25T10:35:23;100023.59;;;3.28;84.90
53340;BME280;46212;50.258;19.062;2023-01-25T10:37:51;100024.63;;;3.16;84.67
53340;BME280;46212;50.258;19.062;2023-01-25T10:40:22;100023.34;;;3.07;84.97
53340;BME280;46212;50.258;19.062;2023-01-25T10:43:04;100021.19;;;3.23;84.94
53340;BME280;46212;50.258;19.062;2023-01-25T10:45:31;100014.75;;;3.38;83.45
53340;BME280;46212;50.258;19.062;2023-01-25T10:48:01;100008.34;;;3.27;83.16
53340;BME280;46212;50.258;19.062;2023-01-25T10:50:41;100005.56;;;3.20;84.00
53340;BME280;46212;50.258;19.062;2023-01-25T10:53:29;99996.69;;;3.30;82.92
53340;BME280;46212;50.258;19.062;2023-01-25T10:58:41;99992.75;;;3.28;82.49
53340;BME280;46212;50.258;19.062;2023-01-25T11:01:11;99993.38;;;3.47;81.78
53340;BME280;46212;50.258;19.062;2023-01-25T11:03:40;99988.06;;;3.61;81.09
53340;BME280;46212;50.258;19.062;2023-01-25T11:06:07;99984.59;;;3.68;79.39
53340;BME280;46212;50.258;19.062;2023-01-25T11:08:42;99970.50;;;3.62;78.92
53340;BME280;46212;50.258;19.062;2023-01-25T11:11:22;99960.75;;;3.65;79.03
53340;BME280;46212;50.258;19.062;2023-01-25T11:13:50;99977.66;;;3.74;79.05
53340;BME280;46212;50.258;19.062;2023-01-25T11:16:35;99973.44;;;3.87;78.77
53340;BME280;46212;50.258;19.062;2023-01-25T11:19:01;99966.94;;;3.99;77.74
53340;BME280;46212;50.258;19.062;2023-01-25T11:21:32;99953.63;;;3.97;76.15
53340;BME280;46212;50.258;19.062;2023-01-25T11:24:00;99948.03;;;3.80;76.20
53340;BME280;46212;50.258;19.062;2023-01-25T11:26:26;99955.06;;;3.84;76.44
53340;BME280;46212;50.258;19.062;2023-01-25T11:29:06;99947.22;;;3.75;77.80
53340;BME280;46212;50.258;19.062;2023-01-25T11:31:35;99957.91;;;3.95;77.34
53340;BME280;46212;50.258;19.062;2023-01-25T11:34:01;99943.06;;;3.92;76.74
53340;BME280;46212;50.258;19.062;2023-01-25T11:36:39;99937.66;;;3.99;76.78
53340;BME280;46212;50.258;19.062;2023-01-25T11:39:20;99929.44;;;3.96;77.37
53340;BME280;46212;50.258;19.062;2023-01-25T11:42:02;99922.50;;;4.09;76.74
53340;BME280;46212;50.258;19.062;2023-01-25T11:44:51;99916.03;;;3.80;78.17
53340;BME280;46212;50.258;19.062;2023-01-25T11:50:40;99901.41;;;4.13;75.95
53340;BME280;46212;50.258;19.062;2023-01-25T11:53:28;99892.81;;;4.11;76.57
53340;BME280;46212;50.258;19.062;2023-01-25T12:01:56;99901.25;;;4.57;74.91
53340;BME280;46212;50.258;19.062;2023-01-25T12:07:03;99893.47;;;4.59;74.19
53340;BME280;46212;50.258;19.062;2023-01-25T12:12:56;99880.44;;;4.35;74.42
53340;BME280;46212;50.258;19.062;2023-01-25T12:15:34;99870.28;;;4.32;74.55
53340;BME280;46212;50.258;19.062;2023-01-25T12:18:25;99867.06;;;4.15;75.45
53340;BME280;46212;50.258;19.062;2023-01-25T12:21:10;99861.50;;;4.01;75.65
53340;BME280;46212;50.258;19.062;2023-01-25T12:23:56;99854.59;;;4.18;75.55
53340;BME280;46212;50.258;19.062;2023-01-25T12:26:38;99860.94;;;4.36;74.57
53340;BME280;46212;50.258;19.062;2023-01-25T12:31:53;99851.84;;;4.14;75.75
53340;BME280;46212;50.258;19.062;2023-01-25T12:36:53;99843.50;;;3.97;75.54
53340;BME280;46212;50.258;19.062;2023-01-25T12:39:25;99847.50;;;4.10;75.79
53340;BME280;46212;50.258;19.062;2023-01-25T12:42:16;99828.78;;;4.12;75.62
53340;BME280;46212;50.258;19.062;2023-01-25T12:44:48;99822.91;;;4.13;75.58
53340;BME280;46212;50.258;19.062;2023-01-25T12:47:20;99826.94;;;4.37;74.45
53340;BME280;46212;50.258;19.062;2023-01-25T12:50:00;99830.09;;;4.46;73.76
53340;BME280;46212;50.258;19.062;2023-01-25T12:52:37;99826.09;;;4.22;73.30
53340;BME280;46212;50.258;19.062;2023-01-25T12:55:16;99818.59;;;4.05;74.74
53340;BME280;46212;50.258;19.062;2023-01-25T13:00:21;99835.44;;;4.14;73.80
53340;BME280;46212;50.258;19.062;2023-01-25T13:08:03;99818.06;;;3.82;74.22
53340;BME280;46212;50.258;19.062;2023-01-25T13:10:39;99803.28;;;3.87;75.10
53340;BME280;46212;50.258;19.062;2023-01-25T13:13:24;99797.44;;;3.92;75.06
53340;BME280;46212;50.258;19.062;2023-01-25T13:15:51;99797.34;;;3.78;76.27
53340;BME280;46212;50.258;19.062;2023-01-25T13:20:53;99795.09;;;3.94;76.06
53340;BME280;46212;50.258;19.062;2023-01-25T13:23:39;99779.47;;;3.94;76.02
53340;BME280;46212;50.258;19.062;2023-01-25T13:28:55;99776.44;;;4.10;75.96
53340;BME280;46212;50.258;19.062;2023-01-25T13:34:09;99779.63;;;4.26;74.74
53340;BME280;46212;50.258;19.062;2023-01-25T13:44:35;99775.53;;;3.85;76.66
53340;BME280;46212;50.258;19.062;2023-01-25T13:47:05;99774.34;;;3.82;77.07
53340;BME280;46212;50.258;19.062;2023-01-25T13:52:17;99767.25;;;3.67;76.89
53340;BME280;46212;50.258;19.062;2023-01-25T13:54:44;99756.63;;;3.58;78.21
53340;BME280;46212;50.258;19.062;2023-01-25T13:57:17;99771.56;;;3.75;77.83
53340;BME280;46212;50.258;19.062;2023-01-25T13:59:43;99755.00;;;3.47;78.94
53340;BME280;46212;50.258;19.062;2023-01-25T14:02:19;99758.66;;;3.14;80.90
53340;BME280;46212;50.258;19.062;2023-01-25T14:04:46;99756.31;;;2.68;82.52
53340;BME280;46212;50.258;19.062;2023-01-25T14:07:17;99743.03;;;2.67;82.57
53340;BME280;46212;50.258;19.062;2023-01-25T14:09:46;99739.78;;;2.91;82.27
53340;BME280;46212;50.258;19.062;2023-01-25T14:12:26;99746.88;;;3.03;81.41
53340;BME280;46212;50.258;19.062;2023-01-25T14:14:54;99735.59;;;3.08;80.90
53340;BME280;46212;50.258;19.062;2023-01-25T14:17:23;99732.13;;;3.11;80.83
53340;BME280;46212;50.258;19.062;2023-01-25T14:19:52;99725.09;;;3.10;80.74
53340;BME280;46212;50.258;19.062;2023-01-25T14:22:26;99733.91;;;3.44;79.79
53340;BME280;46212;50.258;19.062;2023-01-25T14:25:17;99742.97;;;3.55;79.37